Time;durP1;ratioP1;P1;durP2;ratioP2;P2;SDS_P1;SDS_P2;PMS_P1;PMS_P2;Temp;Humidity;BMP_temperature;BMP_pressure;BME280_temperature;BME280_humidity;BME280_pressure;Samples;Min_cycle;Max_cycle;Signal;HPM_P1;HPM_P2
2022/01/13 00:01:04;;;;;;;4.07;2.40;;;;;;;-141.59;100.00;61776.25;5002523;28;20204;-89
2022/01/13 00:03:31;;;;;;;4.07;2.70;;;;;;;-141.59;100.00;61776.25;5005169;28;20206;-89
2022/01/13 00:05:59;;;;;;;3.93;3.00;;;;;;;-141.59;100.00;61776.25;4997677;28;20218;-89
2022/01/13 00:08:26;;;;;;;4.57;2.87;;;;;;;-141.59;100.00;61776.25;4993399;28;20208;-89
2022/01/13 00:10:54;;;;;;;5.10;3.10;;;;;;;-141.59;100.00;61776.25;5001533;28;20300;-89
2022/01/13 00:13:24;;;;;;;3.20;2.17;;;;;;;-141.59;100.00;61776.25;5004331;28;20294;-90
2022/01/13 00:16:22;;;;;;;3.57;1.93;;;;;;;-141.59;100.00;61776.25;5005527;28;20196;-89
2022/01/13 00:18:47;;;;;;;3.87;2.60;;;;;;;-141.59;100.00;61776.25;4996416;28;20291;-89
2022/01/13 00:21:30;;;;;;;3.10;2.00;;;;;;;-141.59;100.00;61776.25;5001170;28;20211;-89
2022/01/13 00:24:00;;;;;;;3.17;1.93;;;;;;;-141.59;100.00;61776.25;4996663;28;20297;-89
2022/01/13 00:26:30;;;;;;;3.63;1.90;;;;;;;-141.59;100.00;61776.25;4998575;28;20195;-89
2022/01/13 00:29:01;;;;;;;3.53;2.10;;;;;;;-141.59;100.00;61776.25;5004260;28;20222;-89
2022/01/13 00:31:33;;;;;;;3.53;2.20;;;;;;;-141.59;100.00;61776.25;4998942;28;20218;-89
2022/01/13 00:34:03;;;;;;;2.67;2.30;;;;;;;-141.59;100.00;61776.25;4999879;28;20225;-89
2022/01/13 00:36:34;;;;;;;4.90;2.20;;;;;;;-141.59;100.00;61776.25;5006551;28;20216;-89
2022/01/13 00:39:01;;;;;;;3.83;2.47;;;;;;;-141.59;100.00;61776.25;4999786;28;20218;-90
2022/01/13 00:41:29;;;;;;;4.43;2.40;;;;;;;-141.59;100.00;61776.25;4995763;28;20354;-89
2022/01/13 00:43:56;;;;;;;4.27;2.60;;;;;;;-141.59;100.00;61776.25;4996018;28;20230;-90
2022/01/13 00:46:27;;;;;;;4.73;2.80;;;;;;;-141.59;100.00;61776.25;4998825;28;20218;-89
2022/01/13 00:48:56;;;;;;;5.03;2.80;;;;;;;-141.59;100.00;61776.25;4996474;28;21695;-90
2022/01/13 00:51:25;;;;;;;3.93;2.70;;;;;;;-141.59;100.00;61776.25;4993491;28;20307;-90
2022/01/13 00:53:55;;;;;;;4.33;2.70;;;;;;;-141.59;100.00;61776.25;5000296;28;20212;-89
2022/01/13 00:56:22;;;;;;;4.13;2.80;;;;;;;-141.59;100.00;61776.25;5003356;28;20213;-89
2022/01/13 00:58:49;;;;;;;3.60;2.67;;;;;;;-141.59;100.00;61776.25;4996814;28;20217;-89
2022/01/13 01:01:16;;;;;;;4.10;2.43;;;;;;;-141.59;100.00;61776.25;5012541;28;20284;-89
2022/01/13 01:03:43;;;;;;;3.43;2.60;;;;;;;-141.59;100.00;61776.25;5002363;28;20213;-89
2022/01/13 01:06:10;;;;;;;3.73;2.43;;;;;;;-141.59;100.00;61776.25;5000847;28;20209;-89
2022/01/13 01:08:38;;;;;;;7.03;2.63;;;;;;;-141.59;100.00;61776.25;4997641;28;20204;-89
2022/01/13 01:11:07;;;;;;;5.83;2.47;;;;;;;-141.59;100.00;61776.25;5003866;28;20204;-88
2022/01/13 01:13:35;;;;;;;4.10;2.40;;;;;;;-141.59;100.00;61776.25;4997793;28;20302;-89
2022/01/13 01:16:07;;;;;;;3.87;2.40;;;;;;;-141.59;100.00;61776.25;5004941;28;20234;-88
2022/01/13 01:18:41;;;;;;;4.60;2.40;;;;;;;-141.59;100.00;61776.25;4998766;28;20637;-88
2022/01/13 01:24:13;;;;;;;5.13;2.50;;;;;;;-141.59;100.00;61776.25;5015445;28;20217;-89
2022/01/13 01:26:45;;;;;;;3.63;2.07;;;;;;;-141.59;100.00;61776.25;4990053;28;20220;-89
2022/01/13 01:29:20;;;;;;;3.00;2.00;;;;;;;-141.59;100.00;61776.25;5002479;28;20251;-89
2022/01/13 01:31:51;;;;;;;3.70;2.17;;;;;;;-141.59;100.00;61776.25;5002260;28;20219;-89
2022/01/13 01:34:33;;;;;;;3.70;2.20;;;;;;;-141.59;100.00;61776.25;5003204;28;20247;-90
2022/01/13 01:37:00;;;;;;;4.20;2.63;;;;;;;-141.59;100.00;61776.25;5002538;28;20213;-90
2022/01/13 01:39:29;;;;;;;5.17;2.43;;;;;;;-141.59;100.00;61776.25;5002162;28;20638;-89
2022/01/13 01:41:58;;;;;;;3.67;2.10;;;;;;;-141.59;100.00;61776.25;4998710;28;20236;-90
2022/01/13 01:44:30;;;;;;;5.30;2.63;;;;;;;-141.59;100.00;61776.25;5007087;28;20210;-90
2022/01/13 01:46:58;;;;;;;3.73;2.17;;;;;;;-141.59;100.00;61776.25;4995374;28;20216;-90
2022/01/13 01:49:26;;;;;;;3.70;2.30;;;;;;;-141.59;100.00;61776.25;4998953;28;20205;-90
2022/01/13 01:51:55;;;;;;;2.97;2.17;;;;;;;-141.59;100.00;61776.25;5005058;28;20307;-89
2022/01/13 01:54:22;;;;;;;4.33;2.50;;;;;;;-141.59;100.00;61776.25;4994514;28;20238;-89
2022/01/13 01:56:50;;;;;;;3.73;2.43;;;;;;;-141.59;100.00;61776.25;5001461;28;20235;-90
2022/01/13 01:59:22;;;;;;;4.43;2.60;;;;;;;-141.59;100.00;61776.25;5003508;28;20257;-89
2022/01/13 02:01:51;;;;;;;2.97;2.20;;;;;;;-141.59;100.00;61776.25;5002470;28;20220;-89
2022/01/13 02:04:20;;;;;;;5.17;2.60;;;;;;;-141.59;100.00;61776.25;5000190;28;20224;-90
2022/01/13 02:06:47;;;;;;;2.70;2.17;;;;;;;-141.59;100.00;61776.25;5005406;28;20204;-89
2022/01/13 02:09:16;;;;;;;3.53;2.53;;;;;;;-141.59;100.00;61776.25;5009195;28;20216;-89
2022/01/13 02:11:46;;;;;;;7.17;2.90;;;;;;;-141.59;100.00;61776.25;4994276;28;20286;-90
2022/01/13 02:14:32;;;;;;;5.10;2.80;;;;;;;-141.59;100.00;61776.25;5002208;28;20200;-90
2022/01/13 02:17:05;;;;;;;5.23;2.70;;;;;;;-141.59;100.00;61776.25;4999321;28;20273;-89
2022/01/13 02:19:34;;;;;;;5.97;2.63;;;;;;;-141.59;100.00;61776.25;4998593;28;20290;-90
2022/01/13 02:22:03;;;;;;;4.20;2.43;;;;;;;-141.59;100.00;61776.25;4998439;28;20196;-90
2022/01/13 02:24:32;;;;;;;3.73;2.50;;;;;;;-141.59;100.00;61776.25;5002678;28;20210;-90
2022/01/13 02:27:00;;;;;;;4.20;2.77;;;;;;;-141.59;100.00;61776.25;4993524;28;20303;-89
2022/01/13 02:29:27;;;;;;;3.87;2.53;;;;;;;-141.59;100.00;61776.25;4997923;28;20237;-90
2022/01/13 02:31:54;;;;;;;2.77;2.00;;;;;;;-141.59;100.00;61776.25;5000562;28;20211;-90
2022/01/13 02:34:22;;;;;;;4.20;2.10;;;;;;;-141.59;100.00;61776.25;4999259;28;20230;-89
2022/01/13 02:36:51;;;;;;;4.13;2.60;;;;;;;-141.59;100.00;61776.25;5000933;28;20215;-89
2022/01/13 02:39:22;;;;;;;3.63;2.43;;;;;;;-141.59;100.00;61776.25;4998715;28;20201;-89
2022/01/13 02:41:49;;;;;;;4.73;2.57;;;;;;;-141.59;100.00;61776.25;4998551;28;20308;-89
2022/01/13 02:44:19;;;;;;;2.57;2.03;;;;;;;-141.59;100.00;61776.25;5004378;28;20252;-89
2022/01/13 02:47:09;;;;;;;4.17;2.40;;;;;;;-141.59;100.00;61776.25;4996637;28;20262;-90
2022/01/13 02:49:36;;;;;;;2.37;2.03;;;;;;;-141.59;100.00;61776.25;4996285;28;20200;-89
2022/01/13 02:52:04;;;;;;;3.70;2.17;;;;;;;-141.59;100.00;61776.25;5000505;28;20200;-90
2022/01/13 02:54:33;;;;;;;4.67;2.30;;;;;;;-141.59;100.00;61776.25;4999779;28;20223;-89
2022/01/13 02:57:00;;;;;;;4.50;2.77;;;;;;;-141.59;100.00;61776.25;4996050;28;20308;-89
2022/01/13 03:03:13;;;;;;;4.00;2.70;;;;;;;-141.59;100.00;61776.25;4999601;28;20419;-90
2022/01/13 03:08:53;;;;;;;4.43;2.60;;;;;;;-141.59;100.00;61776.25;4945914;28;20221;-80
2022/01/13 03:11:30;;;;;;;2.83;1.73;;;;;;;-141.59;100.00;61776.25;4946110;28;20295;-81
2022/01/13 03:13:58;;;;;;;3.90;2.00;;;;;;;-141.59;100.00;61776.25;4946372;28;20216;-81
2022/01/13 03:16:25;;;;;;;3.67;2.10;;;;;;;-141.59;100.00;61776.25;4944944;28;20230;-81
2022/01/13 03:18:52;;;;;;;4.13;2.50;;;;;;;-141.59;100.00;61776.25;4943925;28;20212;-80
2022/01/13 03:21:19;;;;;;;3.07;2.37;;;;;;;-141.59;100.00;61776.25;4945828;28;20210;-81
2022/01/13 03:23:47;;;;;;;3.20;2.73;;;;;;;-141.59;100.00;61776.25;4963297;28;20209;-80
2022/01/13 03:26:14;;;;;;;3.20;2.00;;;;;;;-141.59;100.00;61776.25;4948676;28;20550;-81
2022/01/13 03:28:51;;;;;;;2.80;1.83;;;;;;;-141.59;100.00;61776.25;4947202;28;20241;-80
2022/01/13 03:31:20;;;;;;;3.30;2.07;;;;;;;-141.59;100.00;61776.25;4946905;28;20213;-81
2022/01/13 03:33:47;;;;;;;5.17;2.47;;;;;;;-141.59;100.00;61776.25;4948011;29;20272;-81
2022/01/13 03:36:15;;;;;;;6.83;2.60;;;;;;;-141.59;100.00;61776.25;4944349;29;20226;-81
2022/01/13 03:38:42;;;;;;;3.93;2.67;;;;;;;-141.59;100.00;61776.25;4959715;28;20287;-80
2022/01/13 03:41:09;;;;;;;5.10;2.53;;;;;;;-141.59;100.00;61776.25;4942691;29;20206;-81
2022/01/13 03:43:37;;;;;;;4.87;2.70;;;;;;;-141.59;100.00;61776.25;4947278;28;20221;-81
2022/01/13 03:46:06;;;;;;;4.30;2.80;;;;;;;-141.59;100.00;61776.25;4946841;28;20225;-81
2022/01/13 03:48:33;;;;;;;7.13;3.30;;;;;;;-141.59;100.00;61776.25;4948376;29;20212;-80
2022/01/13 03:51:01;;;;;;;4.23;2.37;;;;;;;-141.59;100.00;61776.25;4937093;28;20305;-81
2022/01/13 03:54:23;;;;;;;4.23;2.63;;;;;;;-141.59;100.00;61776.25;4947134;29;20202;-81
2022/01/13 03:57:57;;;;;;;3.80;2.37;;;;;;;-141.59;100.00;61776.25;4940298;29;20252;-81
2022/01/13 04:01:11;;;;;;;5.17;3.03;;;;;;;-141.59;100.00;61776.25;4954360;28;20214;-81
2022/01/13 04:03:40;;;;;;;5.53;2.67;;;;;;;-141.59;100.00;61776.25;4863423;29;20269;-81
2022/01/13 04:06:30;;;;;;;4.17;2.90;;;;;;;-141.59;100.00;61776.25;4884039;29;20235;-81
2022/01/13 04:08:57;;;;;;;4.57;2.70;;;;;;;-141.59;100.00;61776.25;4920519;29;20214;-81
2022/01/13 04:11:30;;;;;;;4.63;2.87;;;;;;;-141.59;100.00;61776.25;4926130;29;20239;-81
2022/01/13 04:14:01;;;;;;;4.20;2.53;;;;;;;-141.59;100.00;61776.25;4922931;29;20226;-80
2022/01/13 04:16:31;;;;;;;3.47;2.13;;;;;;;-141.59;100.00;61776.25;4940514;29;20254;-81
2022/01/13 04:19:04;;;;;;;5.03;2.63;;;;;;;-141.59;100.00;61776.25;4926759;29;20229;-80
2022/01/13 04:21:33;;;;;;;4.40;2.73;;;;;;;-141.59;100.00;61776.25;4924482;29;20229;-80
2022/01/13 04:24:00;;;;;;;1.90;1.70;;;;;;;-141.59;100.00;61776.25;4942024;28;20210;-81
2022/01/13 04:26:30;;;;;;;3.83;2.77;;;;;;;-141.59;100.00;61776.25;4936912;28;20221;-81
2022/01/13 04:29:05;;;;;;;4.43;2.70;;;;;;;-141.59;100.00;61776.25;4939945;28;20215;-81
2022/01/13 04:31:32;;;;;;;3.90;2.33;;;;;;;-141.59;100.00;61776.25;4935208;28;20279;-81
2022/01/13 04:34:01;;;;;;;3.47;2.63;;;;;;;-141.59;100.00;61776.25;4943610;29;20206;-80
2022/01/13 04:36:28;;;;;;;5.80;2.60;;;;;;;-141.59;100.00;61776.25;4940776;28;20222;-80
2022/01/13 04:38:55;;;;;;;4.83;3.00;;;;;;;-141.59;100.00;61776.25;4943145;28;20203;-81
2022/01/13 04:41:30;;;;;;;3.97;2.30;;;;;;;-141.59;100.00;61776.25;4944077;28;20230;-81
2022/01/13 04:43:57;;;;;;;6.17;2.87;;;;;;;-141.59;100.00;61776.25;4953625;28;20209;-80
2022/01/13 04:46:24;;;;;;;4.90;2.43;;;;;;;-141.59;100.00;61776.25;4927850;29;20242;-80
2022/01/13 04:48:52;;;;;;;5.07;2.87;;;;;;;-141.59;100.00;61776.25;4941017;28;20217;-80
2022/01/13 04:51:21;;;;;;;3.27;2.30;;;;;;;-141.59;100.00;61776.25;4935186;28;20210;-80
2022/01/13 04:53:48;;;;;;;4.40;2.77;;;;;;;-141.59;100.00;61776.25;4940252;28;20213;-81
2022/01/13 04:56:27;;;;;;;3.70;2.60;;;;;;;-141.59;100.00;61776.25;4932903;29;20235;-80
2022/01/13 04:58:54;;;;;;;3.93;2.57;;;;;;;-141.59;100.00;61776.25;4924697;29;20555;-81
2022/01/13 05:01:22;;;;;;;4.23;2.63;;;;;;;-141.59;100.00;61776.25;4942862;28;20209;-81
2022/01/13 05:03:49;;;;;;;4.40;2.50;;;;;;;-141.59;100.00;61776.25;4925075;29;20226;-80
2022/01/13 05:06:17;;;;;;;4.23;2.80;;;;;;;-141.59;100.00;61776.25;4920378;29;20253;-81
2022/01/13 05:08:46;;;;;;;5.77;3.30;;;;;;;-141.59;100.00;61776.25;4955027;28;20252;-80
2022/01/13 05:11:13;;;;;;;4.20;3.13;;;;;;;-141.59;100.00;61776.25;4946097;28;20296;-80
2022/01/13 05:13:41;;;;;;;4.27;2.83;;;;;;;-141.59;100.00;61776.25;4941754;28;20209;-80
2022/01/13 05:16:15;;;;;;;5.50;3.00;;;;;;;-141.59;100.00;61776.25;4947381;28;20221;-80
2022/01/13 05:18:48;;;;;;;4.37;2.80;;;;;;;-141.59;100.00;61776.25;4939098;29;20209;-81
2022/01/13 05:21:22;;;;;;;4.63;2.77;;;;;;;-141.59;100.00;61776.25;4942260;28;20209;-80
2022/01/13 05:23:52;;;;;;;7.27;3.70;;;;;;;-141.59;100.00;61776.25;4943425;28;20248;-81
2022/01/13 05:26:20;;;;;;;6.93;3.43;;;;;;;-141.59;100.00;61776.25;4959907;28;20233;-80
2022/01/13 05:28:48;;;;;;;5.30;3.80;;;;;;;-141.59;100.00;61776.25;4959512;28;20214;-80
2022/01/13 05:31:15;;;;;;;5.70;3.40;;;;;;;-141.59;100.00;61776.25;4943933;28;20280;-80
2022/01/13 05:33:42;;;;;;;4.37;3.07;;;;;;;-141.59;100.00;61776.25;4944534;28;20273;-80
2022/01/13 05:36:10;;;;;;;5.73;3.27;;;;;;;-141.59;100.00;61776.25;4940854;28;20236;-80
2022/01/13 05:38:37;;;;;;;5.60;3.00;;;;;;;-141.59;100.00;61776.25;4945207;28;20223;-80
2022/01/13 05:41:05;;;;;;;5.17;3.00;;;;;;;-141.59;100.00;61776.25;4954381;28;20222;-80
2022/01/13 05:43:32;;;;;;;4.93;2.90;;;;;;;-141.59;100.00;61776.25;4940752;28;20209;-79
2022/01/13 05:45:59;;;;;;;3.77;2.37;;;;;;;-141.59;100.00;61776.25;4945238;28;20236;-79
2022/01/13 05:48:26;;;;;;;9.37;3.43;;;;;;;-141.59;100.00;61776.25;4941718;28;20213;-80
2022/01/13 05:50:54;;;;;;;4.87;3.40;;;;;;;-141.59;100.00;61776.25;4956911;28;20216;-80
2022/01/13 05:53:21;;;;;;;4.17;2.37;;;;;;;-141.59;100.00;61776.25;4955634;28;20224;-79
2022/01/13 05:55:48;;;;;;;4.43;2.60;;;;;;;-141.59;100.00;61776.25;4943544;28;20231;-79
2022/01/13 05:58:16;;;;;;;3.80;2.50;;;;;;;-141.59;100.00;61776.25;4945066;28;20210;-80
2022/01/13 06:00:44;;;;;;;4.23;2.70;;;;;;;-141.59;100.00;61776.25;4945288;28;20202;-80
2022/01/13 06:03:11;;;;;;;5.03;2.70;;;;;;;-141.59;100.00;61776.25;4942955;28;20313;-80
2022/01/13 06:05:38;;;;;;;5.50;3.10;;;;;;;-141.59;100.00;61776.25;4944161;28;20233;-80
2022/01/13 06:08:06;;;;;;;4.60;3.00;;;;;;;-141.59;100.00;61776.25;4939059;28;20239;-80
2022/01/13 06:10:33;;;;;;;7.73;4.23;;;;;;;-141.59;100.00;61776.25;4941839;28;20198;-79
2022/01/13 06:13:01;;;;;;;11.47;5.10;;;;;;;-141.59;100.00;61776.25;4932038;29;20245;-80
2022/01/13 06:15:29;;;;;;;13.33;6.80;;;;;;;-141.59;100.00;61776.25;4940070;29;20206;-80
2022/01/13 06:17:57;;;;;;;13.33;6.70;;;;;;;-141.59;100.00;61776.25;4926754;29;20226;-80
2022/01/13 06:20:25;;;;;;;12.73;6.50;;;;;;;-141.59;100.00;61776.25;4928252;29;20202;-80
2022/01/13 06:22:53;;;;;;;11.83;7.00;;;;;;;-141.59;100.00;61776.25;4913573;29;20275;-80
2022/01/13 06:25:21;;;;;;;11.37;6.73;;;;;;;-141.59;100.00;61776.25;4925612;29;20225;-80
2022/01/13 06:27:48;;;;;;;12.93;6.37;;;;;;;-141.59;100.00;61776.25;4927219;29;20209;-80
2022/01/13 06:30:16;;;;;;;12.53;6.30;;;;;;;-141.59;100.00;61776.25;4927987;29;20218;-80
2022/01/13 06:32:46;;;;;;;13.10;6.33;;;;;;;-141.59;100.00;61776.25;4941455;29;20210;-80
2022/01/13 06:35:14;;;;;;;10.47;5.90;;;;;;;-141.59;100.00;61776.25;4931580;29;20219;-80
2022/01/13 06:37:41;;;;;;;10.20;6.07;;;;;;;-141.59;100.00;61776.25;4939361;28;20237;-80
2022/01/13 06:40:10;;;;;;;8.93;5.37;;;;;;;-141.59;100.00;61776.25;4930377;29;20245;-80
2022/01/13 06:42:39;;;;;;;7.40;4.27;;;;;;;-141.59;100.00;61776.25;4947443;28;20224;-80
2022/01/13 06:45:07;;;;;;;10.23;5.10;;;;;;;-141.59;100.00;61776.25;4945352;28;20220;-80
2022/01/13 06:47:34;;;;;;;10.97;5.40;;;;;;;-141.59;100.00;61776.25;4940766;28;20213;-81
2022/01/13 06:50:03;;;;;;;9.87;5.53;;;;;;;-141.59;100.00;61776.25;4948012;28;20301;-80
2022/01/13 06:52:30;;;;;;;10.07;5.37;;;;;;;-141.59;100.00;61776.25;4945345;28;20210;-80
2022/01/13 06:54:57;;;;;;;8.03;4.93;;;;;;;-141.59;100.00;61776.25;4935388;29;20205;-80
2022/01/13 06:57:24;;;;;;;7.97;4.53;;;;;;;-141.59;100.00;61776.25;4951607;28;20226;-80
2022/01/13 06:59:51;;;;;;;8.80;5.10;;;;;;;-141.59;100.00;61776.25;4950281;28;20213;-80
2022/01/13 07:02:19;;;;;;;7.90;4.17;;;;;;;-141.59;100.00;61776.25;4948947;28;20210;-81
2022/01/13 07:04:46;;;;;;;6.30;4.17;;;;;;;-141.59;100.00;61776.25;4930017;29;20217;-80
2022/01/13 07:07:15;;;;;;;6.17;4.13;;;;;;;-141.59;100.00;61776.25;4951629;28;20288;-81
2022/01/13 07:09:42;;;;;;;5.93;3.80;;;;;;;-141.59;100.00;61776.25;4943792;29;20203;-80
2022/01/13 07:12:11;;;;;;;6.93;3.83;;;;;;;-141.59;100.00;61776.25;4949244;28;20213;-81
2022/01/13 07:14:38;;;;;;;7.90;3.93;;;;;;;-141.59;100.00;61776.25;4951577;28;20211;-81
2022/01/13 07:17:05;;;;;;;6.07;3.93;;;;;;;-141.59;100.00;61776.25;4950979;28;20233;-81
2022/01/13 07:19:32;;;;;;;8.93;4.57;;;;;;;-141.59;100.00;61776.25;4953627;28;20208;-80
2022/01/13 07:21:59;;;;;;;8.27;3.97;;;;;;;-141.59;100.00;61776.25;4967290;28;20220;-80
2022/01/13 07:24:28;;;;;;;9.10;3.57;;;;;;;-141.59;100.00;61776.25;4958778;28;20217;-80
2022/01/13 07:26:55;;;;;;;11.67;4.37;;;;;;;-141.59;100.00;61776.25;4965519;28;20325;-81
2022/01/13 07:29:22;;;;;;;5.57;3.67;;;;;;;-141.59;100.00;61776.25;4968260;28;20241;-80
2022/01/13 07:31:49;;;;;;;8.10;4.27;;;;;;;-141.59;100.00;61776.25;4948632;28;20213;-80
2022/01/13 07:34:16;;;;;;;6.30;3.73;;;;;;;-141.59;100.00;61776.25;4946677;28;20240;-80
2022/01/13 07:36:43;;;;;;;8.10;4.73;;;;;;;-141.59;100.00;61776.25;4945243;29;20224;-80
2022/01/13 07:39:10;;;;;;;11.50;4.50;;;;;;;-141.59;100.00;61776.25;4950613;28;20207;-80
2022/01/13 07:41:39;;;;;;;6.40;3.97;;;;;;;-141.59;100.00;61776.25;4949180;29;20209;-81
2022/01/13 07:44:07;;;;;;;5.73;3.60;;;;;;;-141.59;100.00;61776.25;4952602;28;20209;-80
2022/01/13 07:46:34;;;;;;;6.80;3.63;;;;;;;-141.59;100.00;61776.25;4947771;28;20202;-80
2022/01/13 07:49:02;;;;;;;7.17;4.00;;;;;;;-141.59;100.00;61776.25;4939079;28;20222;-81
2022/01/13 07:51:30;;;;;;;7.93;4.00;;;;;;;-141.59;100.00;61776.25;4940377;28;20203;-80
2022/01/13 07:53:57;;;;;;;7.40;4.03;;;;;;;-141.59;100.00;61776.25;4947113;28;20305;-81
2022/01/13 07:56:24;;;;;;;6.87;4.53;;;;;;;-141.59;100.00;61776.25;4943625;28;20246;-81
2022/01/13 07:58:52;;;;;;;6.80;3.90;;;;;;;-141.59;100.00;61776.25;4942986;29;20214;-81
2022/01/13 08:01:19;;;;;;;7.20;4.07;;;;;;;-141.59;100.00;61776.25;4962175;28;20233;-80
2022/01/13 08:03:46;;;;;;;8.30;5.90;;;;;;;-141.59;100.00;61776.25;4946826;28;20273;-80
2022/01/13 08:06:14;;;;;;;9.17;4.43;;;;;;;-141.59;100.00;61776.25;4940779;28;20244;-80
2022/01/13 08:08:41;;;;;;;7.73;4.20;;;;;;;-141.59;100.00;61776.25;4946116;28;20234;-80
2022/01/13 08:11:10;;;;;;;8.27;5.17;;;;;;;-141.59;100.00;61776.25;4952715;28;20211;-80
2022/01/13 08:13:37;;;;;;;7.93;5.50;;;;;;;-141.59;100.00;61776.25;4940817;28;20207;-81
2022/01/13 08:16:09;;;;;;;9.63;6.30;;;;;;;-141.59;100.00;61776.25;4942608;29;20219;-80
2022/01/13 08:21:21;;;;;;;9.47;5.83;;;;;;;-141.59;100.00;61776.25;4942604;28;20215;-80
2022/01/13 08:23:49;;;;;;;10.80;6.07;;;;;;;-141.59;100.00;61776.25;4959350;28;20250;-80
2022/01/13 08:26:17;;;;;;;10.23;6.20;;;;;;;-141.59;100.00;61776.25;4955290;28;20214;-81
2022/01/13 08:28:44;;;;;;;11.83;6.23;;;;;;;-141.59;100.00;61776.25;4945083;29;20199;-79
2022/01/13 08:31:13;;;;;;;7.90;5.13;;;;;;;-141.59;100.00;61776.25;4942444;28;20241;-80
2022/01/13 08:33:40;;;;;;;9.30;5.33;;;;;;;-141.59;100.00;61776.25;4938782;28;20215;-80
2022/01/13 08:36:07;;;;;;;8.60;5.40;;;;;;;-141.59;100.00;61776.25;4933790;29;20225;-81
2022/01/13 08:38:35;;;;;;;7.53;4.93;;;;;;;-141.59;100.00;61776.25;4933346;28;20278;-81
2022/01/13 08:41:03;;;;;;;8.93;4.77;;;;;;;-141.59;100.00;61776.25;4947322;29;20220;-81
2022/01/13 08:43:32;;;;;;;9.10;5.27;;;;;;;-141.59;100.00;61776.25;4934384;29;20225;-80
2022/01/13 08:45:59;;;;;;;8.37;5.03;;;;;;;-141.59;100.00;61776.25;4947889;29;20321;-80
2022/01/13 08:48:27;;;;;;;10.27;5.33;;;;;;;-141.59;100.00;61776.25;4943934;29;20213;-80
2022/01/13 08:50:54;;;;;;;8.40;5.30;;;;;;;-141.59;100.00;61776.25;4944996;28;20217;-81
2022/01/13 08:53:22;;;;;;;9.57;5.43;;;;;;;-141.59;100.00;61776.25;4942565;29;20270;-80
2022/01/13 08:55:51;;;;;;;13.33;6.13;;;;;;;-141.59;100.00;61776.25;4945493;29;20207;-80
2022/01/13 08:58:19;;;;;;;11.07;6.00;;;;;;;-141.59;100.00;61776.25;4946252;29;20225;-85
2022/01/13 09:00:46;;;;;;;8.93;6.07;;;;;;;-141.59;100.00;61776.25;4940501;28;20215;-81
2022/01/13 09:03:14;;;;;;;12.30;7.20;;;;;;;-141.59;100.00;61776.25;4941660;28;20274;-80
2022/01/13 09:05:44;;;;;;;9.43;5.87;;;;;;;-141.59;100.00;61776.25;4945029;29;20218;-80
2022/01/13 09:08:12;;;;;;;9.73;6.30;;;;;;;-141.59;100.00;61776.25;4941884;28;20250;-80
2022/01/13 09:10:42;;;;;;;15.90;6.20;;;;;;;-141.59;100.00;61776.25;4949026;28;20223;-79
2022/01/13 09:13:11;;;;;;;11.63;6.70;;;;;;;-141.59;100.00;61776.25;4947912;28;20249;-80
2022/01/13 09:15:42;;;;;;;14.93;8.30;;;;;;;-141.59;100.00;61776.25;4956882;28;20208;-81
2022/01/13 09:18:11;;;;;;;15.77;7.83;;;;;;;-141.59;100.00;61776.25;4942325;29;20253;-81
2022/01/13 09:20:40;;;;;;;12.27;6.87;;;;;;;-141.59;100.00;61776.25;4947948;28;20199;-80
2022/01/13 09:23:09;;;;;;;8.43;5.37;;;;;;;-141.59;100.00;61776.25;4942262;28;20205;-81
2022/01/13 09:25:36;;;;;;;11.83;6.57;;;;;;;-141.59;100.00;61776.25;4943850;28;20213;-80
2022/01/13 09:28:08;;;;;;;12.00;6.60;;;;;;;-141.59;100.00;61776.25;4939168;28;20212;-80
2022/01/13 09:30:35;;;;;;;10.40;6.13;;;;;;;-141.59;100.00;61776.25;4938978;28;20216;-81
2022/01/13 09:33:02;;;;;;;12.17;7.33;;;;;;;-141.59;100.00;61776.25;4943380;29;20292;-80
2022/01/13 09:35:30;;;;;;;14.37;7.60;;;;;;;-141.59;100.00;61776.25;4946415;28;20206;-81
2022/01/13 09:37:57;;;;;;;14.00;7.97;;;;;;;-141.59;100.00;61776.25;4945754;28;20312;-81
2022/01/13 09:40:25;;;;;;;12.87;7.77;;;;;;;-141.59;100.00;61776.25;4935550;28;20240;-80
2022/01/13 09:42:53;;;;;;;12.07;6.83;;;;;;;-141.59;100.00;61776.25;4938122;29;20233;-80
2022/01/13 09:45:22;;;;;;;11.97;6.60;;;;;;;-141.59;100.00;61776.25;4938870;28;20205;-80
2022/01/13 09:47:50;;;;;;;13.47;7.67;;;;;;;-141.59;100.00;61776.25;4956714;28;20205;-81
2022/01/13 09:50:20;;;;;;;12.47;7.47;;;;;;;-141.59;100.00;61776.25;4939192;28;20233;-80
2022/01/13 09:52:48;;;;;;;15.67;7.80;;;;;;;-141.59;100.00;61776.25;4957976;28;20222;-81
2022/01/13 09:55:16;;;;;;;11.90;7.17;;;;;;;-141.59;100.00;61776.25;4937854;29;20225;-81
2022/01/13 09:57:46;;;;;;;12.20;7.13;;;;;;;-141.59;100.00;61776.25;4936840;29;20224;-80
2022/01/13 10:00:16;;;;;;;13.17;6.73;;;;;;;-141.59;100.00;61776.25;4935463;29;20220;-80
2022/01/13 10:02:44;;;;;;;11.80;7.50;;;;;;;-141.59;100.00;61776.25;4934874;29;20212;-80
2022/01/13 10:05:12;;;;;;;16.53;8.37;;;;;;;-141.59;100.00;61776.25;4956959;28;20266;-81
2022/01/13 10:07:42;;;;;;;13.93;7.80;;;;;;;-141.59;100.00;61776.25;4941508;29;20238;-81
2022/01/13 10:10:13;;;;;;;13.50;8.20;;;;;;;-141.59;100.00;61776.25;4956434;28;20224;-80
2022/01/13 10:12:43;;;;;;;13.20;8.27;;;;;;;-141.59;100.00;61776.25;4940198;28;20213;-80
2022/01/13 10:17:58;;;;;;;14.27;8.40;;;;;;;-141.59;100.00;61776.25;4944039;29;20237;-80
2022/01/13 10:20:25;;;;;;;14.83;8.57;;;;;;;-141.59;100.00;61776.25;4939716;29;20443;-80
2022/01/13 10:22:53;;;;;;;14.53;8.50;;;;;;;-141.59;100.00;61776.25;4943472;29;20300;-80
2022/01/13 10:25:30;;;;;;;13.43;8.57;;;;;;;-141.59;100.00;61776.25;4936653;29;20237;-80
2022/01/13 10:28:11;;;;;;;13.07;8.60;;;;;;;-141.59;100.00;61776.25;4943278;28;20240;-80
2022/01/13 10:30:40;;;;;;;13.03;8.07;;;;;;;-141.59;100.00;61776.25;4949142;28;20206;-80
2022/01/13 10:33:19;;;;;;;16.07;9.50;;;;;;;-141.59;100.00;61776.25;4944869;29;20213;-81
2022/01/13 10:35:48;;;;;;;16.63;9.10;;;;;;;-141.59;100.00;61776.25;4940538;29;20220;-80
2022/01/13 10:38:17;;;;;;;16.53;9.47;;;;;;;-141.59;100.00;61776.25;4944661;29;20248;-80
2022/01/13 10:40:47;;;;;;;15.67;9.40;;;;;;;-141.59;100.00;61776.25;4940772;29;20220;-80
2022/01/13 10:43:16;;;;;;;15.77;9.07;;;;;;;-141.59;100.00;61776.25;4959698;28;20209;-81
2022/01/13 10:45:48;;;;;;;14.87;8.73;;;;;;;-141.59;100.00;61776.25;4939793;29;20299;-80
2022/01/13 10:48:20;;;;;;;15.97;9.83;;;;;;;-141.59;100.00;61776.25;4941618;28;20487;-81
2022/01/13 10:50:50;;;;;;;15.73;8.77;;;;;;;-141.59;100.00;61776.25;4947953;28;20205;-81
2022/01/13 10:53:23;;;;;;;17.27;9.57;;;;;;;-141.59;100.00;61776.25;4934810;29;20242;-80
2022/01/13 10:55:53;;;;;;;13.17;9.10;;;;;;;-141.59;100.00;61776.25;4933456;29;20316;-81
2022/01/13 10:58:26;;;;;;;16.43;9.33;;;;;;;-141.59;100.00;61776.25;4936395;29;20219;-81
2022/01/13 11:00:55;;;;;;;19.73;9.03;;;;;;;-141.59;100.00;61776.25;4945276;29;20221;-81
2022/01/13 11:03:24;;;;;;;13.00;9.20;;;;;;;-141.59;100.00;61776.25;4933785;28;20216;-81
2022/01/13 11:05:53;;;;;;;15.97;9.50;;;;;;;-141.59;100.00;61776.25;4937152;29;20235;-81
2022/01/13 11:08:30;;;;;;;13.27;8.80;;;;;;;-141.59;100.00;61776.25;4945719;29;20226;-81
2022/01/13 11:10:59;;;;;;;15.83;9.50;;;;;;;-141.59;100.00;61776.25;4943377;29;20215;-81
2022/01/13 11:13:28;;;;;;;14.70;9.40;;;;;;;-141.59;100.00;61776.25;4957576;28;20202;-81
2022/01/13 11:15:58;;;;;;;14.70;9.43;;;;;;;-141.59;100.00;61776.25;4939938;29;20296;-81
2022/01/13 11:18:26;;;;;;;17.60;9.10;;;;;;;-141.59;100.00;61776.25;4937880;29;20222;-82
2022/01/13 11:20:55;;;;;;;16.10;8.87;;;;;;;-141.59;100.00;61776.25;4943099;29;20534;-82
2022/01/13 11:23:23;;;;;;;17.77;9.20;;;;;;;-141.59;100.00;61776.25;4961985;28;20274;-82
2022/01/13 11:25:52;;;;;;;16.40;8.57;;;;;;;-141.59;100.00;61776.25;4944644;28;20268;-82
2022/01/13 11:28:20;;;;;;;12.60;8.30;;;;;;;-141.59;100.00;61776.25;4943760;28;20208;-82
2022/01/13 11:30:49;;;;;;;14.13;8.27;;;;;;;-141.59;100.00;61776.25;4954675;28;20206;-81
2022/01/13 11:33:18;;;;;;;13.73;9.40;;;;;;;-141.59;100.00;61776.25;4945978;28;20205;-82